Ana Sayfa
METAR-TAF:

METAR-TAF

Havaalanları :

Çardak, Türkiye

Denizli Çardak Havalimanı

Enlem: 37-47N, Boylam: 029-42E, yükseklik: 849 m

Güncel hava durumu gözlemi

Rapor saat 13:50 UTC de 45 dakika önce yapıldı.
Rüzgar doğu/kuzeydoğudan 7 kt
Sıcaklık 13°C
Nem 54%
Basınç 1008 hPa
Görüş mesafesi 10 km veya daha fazla
3500 ft yükseklikte parçalı bulutlu
10000 ft yükseklikte parçalı çok bulutlu

METAR: LTAY 231350Z 07007KT 9999 SCT035 BKN100 13/04 Q1008

Saat: 17:35 (14:35 UTC)

Tahmin

Rapor saat 13:40 UTC de 55 dakika önce yapıldı.
Ayın 23'si saat 15 UTC'den ayın 23'si saat 24 UTC'ye kadar geçerli Tahmin
Rüzgar değişken yönden 2 kt
Görüş mesafesi 10 km veya daha fazla
3500 ft yükseklikte parçalı bulutlu
10000 ft yükseklikte parçalı çok bulutlu
Geçici
ayın 23'si saat 15 UTC'den ayın 23'si saat 18 UTC'ye kadar
hafif sağanak yağmurlar

TAF: LTAY 231340Z 2315/2324 VRB02KT 9999 SCT035 BKN100 TEMPO 2315/2318 -SHRA

4.000'den fazla havaalanı için hava durumu gözlemleri ve tahminleri (METAR ve TAF raporları).

Kullanılabilir istasyonlar harita üzerinde sarı ve kırmızı noktalarla gösterilir.

İstasyonun adını görmek için fareyi noktanın üzerinde gezdirin.

Sonrasında hava gözlem ve tahminlerini görmek için tıklayın.

Haritayı değiştirmek için: yaklaştırmak için siyah artı işaretli yeşil düğmeye ve uzaklaştırmak için de eksi işaretli düğmeye hızla tıklayın; bitişik haritalar için yeşil okları kullanın.


METAR-TAF: